sensor_id;sensor_type;location;lat;lon;timestamp;temperature;humidity
4637;DHT22;2331;48.806;9.140;2023-07-20T00:02:05;24.00;1.00
4637;DHT22;2331;48.806;9.140;2023-07-20T00:04:34;23.90;1.00
4637;DHT22;2331;48.806;9.140;2023-07-20T00:07:01;23.80;1.00
4637;DHT22;2331;48.806;9.140;2023-07-20T00:09:28;23.80;1.00
4637;DHT22;2331;48.806;9.140;2023-07-20T00:11:55;23.70;1.00
4637;DHT22;2331;48.806;9.140;2023-07-20T00:14:22;23.60;1.00
4637;DHT22;2331;48.806;9.140;2023-07-20T00:16:50;23.60;1.00
4637;DHT22;2331;48.806;9.140;2023-07-20T00:19:21;23.50;1.00
4637;DHT22;2331;48.806;9.140;2023-07-20T00:21:49;23.50;1.00
4637;DHT22;2331;48.806;9.140;2023-07-20T00:24:16;23.40;1.00
4637;DHT22;2331;48.806;9.140;2023-07-20T00:26:43;23.20;1.00
4637;DHT22;2331;48.806;9.140;2023-07-20T00:29:10;23.20;1.00
4637;DHT22;2331;48.806;9.140;2023-07-20T00:31:37;23.10;1.00
4637;DHT22;2331;48.806;9.140;2023-07-20T00:34:04;23.10;1.00
4637;DHT22;2331;48.806;9.140;2023-07-20T00:36:31;23.10;1.00
4637;DHT22;2331;48.806;9.140;2023-07-20T00:38:59;23.10;1.00
4637;DHT22;2331;48.806;9.140;2023-07-20T00:41:25;23.00;1.00
4637;DHT22;2331;48.806;9.140;2023-07-20T00:43:54;23.10;1.00
4637;DHT22;2331;48.806;9.140;2023-07-20T00:46:23;23.10;1.00
4637;DHT22;2331;48.806;9.140;2023-07-20T00:48:56;23.00;1.00
4637;DHT22;2331;48.806;9.140;2023-07-20T00:51:23;23.00;1.00
4637;DHT22;2331;48.806;9.140;2023-07-20T00:53:51;23.00;1.00
4637;DHT22;2331;48.806;9.140;2023-07-20T00:56:20;23.00;1.00
4637;DHT22;2331;48.806;9.140;2023-07-20T00:58:48;22.90;1.00
4637;DHT22;2331;48.806;9.140;2023-07-20T01:01:14;23.00;1.00
4637;DHT22;2331;48.806;9.140;2023-07-20T01:03:41;23.00;1.00
4637;DHT22;2331;48.806;9.140;2023-07-20T01:06:20;22.90;1.00
4637;DHT22;2331;48.806;9.140;2023-07-20T01:08:57;22.90;1.00
4637;DHT22;2331;48.806;9.140;2023-07-20T01:11:36;22.90;1.00
4637;DHT22;2331;48.806;9.140;2023-07-20T01:14:05;22.80;1.00
4637;DHT22;2331;48.806;9.140;2023-07-20T01:16:33;22.70;1.00
4637;DHT22;2331;48.806;9.140;2023-07-20T01:18:59;22.70;1.00
4637;DHT22;2331;48.806;9.140;2023-07-20T01:21:34;22.70;1.00
4637;DHT22;2331;48.806;9.140;2023-07-20T01:24:39;22.70;1.00
4637;DHT22;2331;48.806;9.140;2023-07-20T01:30:42;22.70;1.00
4637;DHT22;2331;48.806;9.140;2023-07-20T01:33:14;22.70;1.00
4637;DHT22;2331;48.806;9.140;2023-07-20T01:35:43;22.70;1.00
4637;DHT22;2331;48.806;9.140;2023-07-20T01:38:12;22.80;1.00
4637;DHT22;2331;48.806;9.140;2023-07-20T01:40:40;22.80;1.00
4637;DHT22;2331;48.806;9.140;2023-07-20T01:43:07;22.80;1.00
4637;DHT22;2331;48.806;9.140;2023-07-20T01:45:34;22.80;1.00
4637;DHT22;2331;48.806;9.140;2023-07-20T01:48:01;22.70;1.00
4637;DHT22;2331;48.806;9.140;2023-07-20T01:50:30;22.70;1.00
4637;DHT22;2331;48.806;9.140;2023-07-20T01:52:57;22.70;1.00
4637;DHT22;2331;48.806;9.140;2023-07-20T01:55:23;22.70;1.00
4637;DHT22;2331;48.806;9.140;2023-07-20T01:57:50;22.70;1.00
4637;DHT22;2331;48.806;9.140;2023-07-20T02:00:18;22.70;1.00
4637;DHT22;2331;48.806;9.140;2023-07-20T02:02:47;22.70;1.00
4637;DHT22;2331;48.806;9.140;2023-07-20T02:05:13;22.70;1.00
4637;DHT22;2331;48.806;9.140;2023-07-20T02:07:42;22.60;1.00
4637;DHT22;2331;48.806;9.140;2023-07-20T02:10:09;22.60;1.00
4637;DHT22;2331;48.806;9.140;2023-07-20T02:12:36;22.60;1.00
4637;DHT22;2331;48.806;9.140;2023-07-20T02:15:03;22.60;1.00
4637;DHT22;2331;48.806;9.140;2023-07-20T02:17:30;22.60;1.00
4637;DHT22;2331;48.806;9.140;2023-07-20T02:19:57;22.50;1.00
4637;DHT22;2331;48.806;9.140;2023-07-20T02:22:24;22.50;1.00
4637;DHT22;2331;48.806;9.140;2023-07-20T02:24:52;22.40;1.00
4637;DHT22;2331;48.806;9.140;2023-07-20T02:27:18;22.40;1.00
4637;DHT22;2331;48.806;9.140;2023-07-20T02:29:45;22.30;1.00
4637;DHT22;2331;48.806;9.140;2023-07-20T02:32:12;22.30;1.00
4637;DHT22;2331;48.806;9.140;2023-07-20T02:34:39;22.30;1.00
4637;DHT22;2331;48.806;9.140;2023-07-20T02:37:06;22.20;1.00
4637;DHT22;2331;48.806;9.140;2023-07-20T02:39:32;22.10;1.00
4637;DHT22;2331;48.806;9.140;2023-07-20T02:42:00;22.20;1.00
4637;DHT22;2331;48.806;9.140;2023-07-20T02:44:26;22.10;1.00
4637;DHT22;2331;48.806;9.140;2023-07-20T02:46:53;22.00;1.00
4637;DHT22;2331;48.806;9.140;2023-07-20T02:49:20;22.00;1.00
4637;DHT22;2331;48.806;9.140;2023-07-20T02:51:47;21.90;1.00
4637;DHT22;2331;48.806;9.140;2023-07-20T02:54:14;21.90;1.00
4637;DHT22;2331;48.806;9.140;2023-07-20T02:56:41;21.90;1.00
4637;DHT22;2331;48.806;9.140;2023-07-20T02:59:09;21.90;1.00
4637;DHT22;2331;48.806;9.140;2023-07-20T03:01:35;21.90;1.00
4637;DHT22;2331;48.806;9.140;2023-07-20T03:04:03;21.90;1.00
4637;DHT22;2331;48.806;9.140;2023-07-20T03:06:30;21.80;1.00
4637;DHT22;2331;48.806;9.140;2023-07-20T03:08:57;21.70;1.00
4637;DHT22;2331;48.806;9.140;2023-07-20T03:11:23;21.80;1.00
4637;DHT22;2331;48.806;9.140;2023-07-20T03:13:50;21.80;1.00
4637;DHT22;2331;48.806;9.140;2023-07-20T03:16:19;21.80;1.00
4637;DHT22;2331;48.806;9.140;2023-07-20T03:18:46;21.70;1.00
4637;DHT22;2331;48.806;9.140;2023-07-20T03:21:13;21.70;1.00
4637;DHT22;2331;48.806;9.140;2023-07-20T03:23:40;21.70;1.00
4637;DHT22;2331;48.806;9.140;2023-07-20T03:26:08;21.70;1.00
4637;DHT22;2331;48.806;9.140;2023-07-20T03:28:34;21.70;1.00
4637;DHT22;2331;48.806;9.140;2023-07-20T03:31:01;21.70;1.00
4637;DHT22;2331;48.806;9.140;2023-07-20T03:33:30;21.70;1.00
4637;DHT22;2331;48.806;9.140;2023-07-20T03:35:57;21.60;1.00
4637;DHT22;2331;48.806;9.140;2023-07-20T03:38:25;21.60;1.00
4637;DHT22;2331;48.806;9.140;2023-07-20T03:40:52;21.50;1.00
4637;DHT22;2331;48.806;9.140;2023-07-20T03:43:19;21.50;1.00
4637;DHT22;2331;48.806;9.140;2023-07-20T03:45:46;21.50;1.00
4637;DHT22;2331;48.806;9.140;2023-07-20T03:48:14;21.50;1.00
4637;DHT22;2331;48.806;9.140;2023-07-20T03:50:44;21.50;1.00
4637;DHT22;2331;48.806;9.140;2023-07-20T03:53:11;21.40;1.00
4637;DHT22;2331;48.806;9.140;2023-07-20T03:55:37;21.40;1.00
4637;DHT22;2331;48.806;9.140;2023-07-20T03:58:06;21.40;1.00
4637;DHT22;2331;48.806;9.140;2023-07-20T04:00:32;21.40;1.00
4637;DHT22;2331;48.806;9.140;2023-07-20T04:02:59;21.40;1.00
4637;DHT22;2331;48.806;9.140;2023-07-20T04:05:26;21.40;1.00
4637;DHT22;2331;48.806;9.140;2023-07-20T04:07:54;21.30;1.00
4637;DHT22;2331;48.806;9.140;2023-07-20T04:10:21;21.30;1.00
4637;DHT22;2331;48.806;9.140;2023-07-20T04:12:48;21.30;1.00
4637;DHT22;2331;48.806;9.140;2023-07-20T04:15:15;21.30;1.00
4637;DHT22;2331;48.806;9.140;2023-07-20T04:17:42;21.30;1.00
4637;DHT22;2331;48.806;9.140;2023-07-20T04:20:09;21.30;1.00
4637;DHT22;2331;48.806;9.140;2023-07-20T04:22:36;21.20;1.00
4637;DHT22;2331;48.806;9.140;2023-07-20T04:25:04;21.30;1.00
4637;DHT22;2331;48.806;9.140;2023-07-20T04:27:31;21.20;1.00
4637;DHT22;2331;48.806;9.140;2023-07-20T04:29:58;21.10;1.00
4637;DHT22;2331;48.806;9.140;2023-07-20T04:32:25;21.20;1.00
4637;DHT22;2331;48.806;9.140;2023-07-20T04:34:52;21.20;1.00
4637;DHT22;2331;48.806;9.140;2023-07-20T04:37:19;21.20;1.00
4637;DHT22;2331;48.806;9.140;2023-07-20T04:39:46;21.20;1.00
4637;DHT22;2331;48.806;9.140;2023-07-20T04:42:14;21.20;1.00
4637;DHT22;2331;48.806;9.140;2023-07-20T04:44:41;21.20;1.00
4637;DHT22;2331;48.806;9.140;2023-07-20T04:47:07;21.20;1.00
4637;DHT22;2331;48.806;9.140;2023-07-20T04:49:35;21.20;1.00
4637;DHT22;2331;48.806;9.140;2023-07-20T04:52:02;21.20;1.00
4637;DHT22;2331;48.806;9.140;2023-07-20T04:54:29;21.20;1.00
4637;DHT22;2331;48.806;9.140;2023-07-20T04:56:55;21.30;1.00
4637;DHT22;2331;48.806;9.140;2023-07-20T04:59:24;21.30;1.00
4637;DHT22;2331;48.806;9.140;2023-07-20T05:01:50;21.30;1.00
4637;DHT22;2331;48.806;9.140;2023-07-20T05:04:18;21.30;1.00
4637;DHT22;2331;48.806;9.140;2023-07-20T05:06:45;21.30;1.00
4637;DHT22;2331;48.806;9.140;2023-07-20T05:09:12;21.40;1.00
4637;DHT22;2331;48.806;9.140;2023-07-20T05:11:38;21.40;1.00
4637;DHT22;2331;48.806;9.140;2023-07-20T05:14:05;21.50;1.00
4637;DHT22;2331;48.806;9.140;2023-07-20T05:16:33;21.50;1.00
4637;DHT22;2331;48.806;9.140;2023-07-20T05:19:00;21.50;1.00
4637;DHT22;2331;48.806;9.140;2023-07-20T05:21:26;21.60;1.00
4637;DHT22;2331;48.806;9.140;2023-07-20T05:23:53;21.60;1.00
4637;DHT22;2331;48.806;9.140;2023-07-20T05:26:20;21.60;1.00
4637;DHT22;2331;48.806;9.140;2023-07-20T05:28:47;21.60;1.00
4637;DHT22;2331;48.806;9.140;2023-07-20T05:31:13;21.70;1.00
4637;DHT22;2331;48.806;9.140;2023-07-20T05:33:41;21.70;1.00
4637;DHT22;2331;48.806;9.140;2023-07-20T05:36:08;21.70;1.00
4637;DHT22;2331;48.806;9.140;2023-07-20T05:38:35;21.80;1.00
4637;DHT22;2331;48.806;9.140;2023-07-20T05:41:02;21.80;1.00
4637;DHT22;2331;48.806;9.140;2023-07-20T05:43:29;21.80;1.00
4637;DHT22;2331;48.806;9.140;2023-07-20T05:45:56;21.90;1.00
4637;DHT22;2331;48.806;9.140;2023-07-20T05:48:23;21.90;1.00
4637;DHT22;2331;48.806;9.140;2023-07-20T05:50:52;21.90;1.00
4637;DHT22;2331;48.806;9.140;2023-07-20T05:53:19;21.90;1.00
4637;DHT22;2331;48.806;9.140;2023-07-20T05:55:52;22.00;1.00
4637;DHT22;2331;48.806;9.140;2023-07-20T05:58:18;22.00;1.00
4637;DHT22;2331;48.806;9.140;2023-07-20T06:00:47;22.00;1.00
4637;DHT22;2331;48.806;9.140;2023-07-20T06:03:14;22.10;1.00
4637;DHT22;2331;48.806;9.140;2023-07-20T06:05:42;22.10;1.00
4637;DHT22;2331;48.806;9.140;2023-07-20T06:08:10;22.10;1.00
4637;DHT22;2331;48.806;9.140;2023-07-20T06:10:37;22.10;1.00
4637;DHT22;2331;48.806;9.140;2023-07-20T06:13:03;22.00;1.00
4637;DHT22;2331;48.806;9.140;2023-07-20T06:15:32;22.00;1.00
4637;DHT22;2331;48.806;9.140;2023-07-20T06:18:01;22.10;1.00
4637;DHT22;2331;48.806;9.140;2023-07-20T06:20:29;22.10;1.00
4637;DHT22;2331;48.806;9.140;2023-07-20T06:22:56;22.00;1.00
4637;DHT22;2331;48.806;9.140;2023-07-20T06:25:24;22.10;1.00
4637;DHT22;2331;48.806;9.140;2023-07-20T06:27:51;22.20;1.00
4637;DHT22;2331;48.806;9.140;2023-07-20T06:30:18;22.20;1.00
4637;DHT22;2331;48.806;9.140;2023-07-20T06:32:44;22.20;1.00
4637;DHT22;2331;48.806;9.140;2023-07-20T06:35:11;22.10;1.00
4637;DHT22;2331;48.806;9.140;2023-07-20T06:37:38;22.20;1.00
4637;DHT22;2331;48.806;9.140;2023-07-20T06:40:06;22.20;1.00
4637;DHT22;2331;48.806;9.140;2023-07-20T06:42:35;22.20;1.00
4637;DHT22;2331;48.806;9.140;2023-07-20T06:45:02;22.30;1.00
4637;DHT22;2331;48.806;9.140;2023-07-20T06:47:29;22.30;1.00
4637;DHT22;2331;48.806;9.140;2023-07-20T06:49:56;22.30;1.00
4637;DHT22;2331;48.806;9.140;2023-07-20T06:52:23;22.40;1.00
4637;DHT22;2331;48.806;9.140;2023-07-20T06:54:50;22.40;1.00
4637;DHT22;2331;48.806;9.140;2023-07-20T06:57:16;22.40;1.00
4637;DHT22;2331;48.806;9.140;2023-07-20T06:59:45;22.40;1.00
4637;DHT22;2331;48.806;9.140;2023-07-20T07:02:11;22.40;1.00
4637;DHT22;2331;48.806;9.140;2023-07-20T07:04:38;22.40;1.00
4637;DHT22;2331;48.806;9.140;2023-07-20T07:07:05;22.50;1.00
4637;DHT22;2331;48.806;9.140;2023-07-20T07:09:32;22.40;1.00
4637;DHT22;2331;48.806;9.140;2023-07-20T07:11:59;22.60;1.00
4637;DHT22;2331;48.806;9.140;2023-07-20T07:14:25;22.70;1.00
4637;DHT22;2331;48.806;9.140;2023-07-20T07:16:54;22.70;1.00
4637;DHT22;2331;48.806;9.140;2023-07-20T07:19:20;22.70;1.00
4637;DHT22;2331;48.806;9.140;2023-07-20T07:21:47;22.70;1.00
4637;DHT22;2331;48.806;9.140;2023-07-20T07:24:14;22.60;1.00
4637;DHT22;2331;48.806;9.140;2023-07-20T07:26:40;22.70;1.00
4637;DHT22;2331;48.806;9.140;2023-07-20T07:29:07;22.80;1.00
4637;DHT22;2331;48.806;9.140;2023-07-20T07:31:34;22.80;1.00
4637;DHT22;2331;48.806;9.140;2023-07-20T07:34:03;22.80;1.00
4637;DHT22;2331;48.806;9.140;2023-07-20T07:36:30;22.80;1.00
4637;DHT22;2331;48.806;9.140;2023-07-20T07:38:57;22.80;1.00
4637;DHT22;2331;48.806;9.140;2023-07-20T07:41:23;22.80;1.00
4637;DHT22;2331;48.806;9.140;2023-07-20T07:43:50;22.70;1.00
4637;DHT22;2331;48.806;9.140;2023-07-20T07:46:17;22.80;1.00
4637;DHT22;2331;48.806;9.140;2023-07-20T07:48:44;22.80;1.00
4637;DHT22;2331;48.806;9.140;2023-07-20T07:51:12;22.90;1.00
4637;DHT22;2331;48.806;9.140;2023-07-20T07:53:40;23.00;1.00
4637;DHT22;2331;48.806;9.140;2023-07-20T07:56:07;23.10;1.00
4637;DHT22;2331;48.806;9.140;2023-07-20T07:58:34;23.10;1.00
4637;DHT22;2331;48.806;9.140;2023-07-20T08:01:01;23.10;1.00
4637;DHT22;2331;48.806;9.140;2023-07-20T08:03:28;23.10;1.00
4637;DHT22;2331;48.806;9.140;2023-07-20T08:05:55;23.20;1.00
4637;DHT22;2331;48.806;9.140;2023-07-20T08:08:23;23.20;1.00
4637;DHT22;2331;48.806;9.140;2023-07-20T08:10:53;23.20;1.00
4637;DHT22;2331;48.806;9.140;2023-07-20T08:13:20;23.30;1.00
4637;DHT22;2331;48.806;9.140;2023-07-20T08:15:50;23.20;1.00
4637;DHT22;2331;48.806;9.140;2023-07-20T08:18:17;23.20;1.00
4637;DHT22;2331;48.806;9.140;2023-07-20T08:20:45;23.10;1.00
4637;DHT22;2331;48.806;9.140;2023-07-20T08:23:12;23.20;1.00
4637;DHT22;2331;48.806;9.140;2023-07-20T08:25:40;23.20;1.00
4637;DHT22;2331;48.806;9.140;2023-07-20T08:28:09;23.20;1.00
4637;DHT22;2331;48.806;9.140;2023-07-20T08:30:41;23.20;1.00
4637;DHT22;2331;48.806;9.140;2023-07-20T08:33:10;23.10;1.00
4637;DHT22;2331;48.806;9.140;2023-07-20T08:35:37;23.00;1.00
4637;DHT22;2331;48.806;9.140;2023-07-20T08:38:03;23.10;1.00
4637;DHT22;2331;48.806;9.140;2023-07-20T08:40:31;23.20;1.00
4637;DHT22;2331;48.806;9.140;2023-07-20T08:43:00;23.40;1.00
4637;DHT22;2331;48.806;9.140;2023-07-20T08:45:27;23.40;1.00
4637;DHT22;2331;48.806;9.140;2023-07-20T08:47:56;23.50;1.00
4637;DHT22;2331;48.806;9.140;2023-07-20T08:50:25;23.50;1.00
4637;DHT22;2331;48.806;9.140;2023-07-20T08:52:52;23.50;1.00
4637;DHT22;2331;48.806;9.140;2023-07-20T08:55:20;23.60;1.00
4637;DHT22;2331;48.806;9.140;2023-07-20T08:57:50;23.60;1.00
4637;DHT22;2331;48.806;9.140;2023-07-20T09:00:21;23.50;1.00
4637;DHT22;2331;48.806;9.140;2023-07-20T09:02:49;23.60;1.00
4637;DHT22;2331;48.806;9.140;2023-07-20T09:05:17;23.60;1.00
4637;DHT22;2331;48.806;9.140;2023-07-20T09:07:43;23.80;1.00
4637;DHT22;2331;48.806;9.140;2023-07-20T09:10:10;23.90;1.00
4637;DHT22;2331;48.806;9.140;2023-07-20T09:12:38;23.80;1.00
4637;DHT22;2331;48.806;9.140;2023-07-20T09:15:07;23.80;1.00
4637;DHT22;2331;48.806;9.140;2023-07-20T09:17:35;23.90;1.00
4637;DHT22;2331;48.806;9.140;2023-07-20T09:20:04;23.90;1.00
4637;DHT22;2331;48.806;9.140;2023-07-20T09:22:34;23.80;1.00
4637;DHT22;2331;48.806;9.140;2023-07-20T09:25:01;23.70;1.00
4637;DHT22;2331;48.806;9.140;2023-07-20T09:27:35;23.80;1.00
4637;DHT22;2331;48.806;9.140;2023-07-20T09:30:04;23.80;1.00
4637;DHT22;2331;48.806;9.140;2023-07-20T09:32:40;23.90;1.00
4637;DHT22;2331;48.806;9.140;2023-07-20T09:35:13;23.90;1.00
4637;DHT22;2331;48.806;9.140;2023-07-20T09:37:46;24.00;1.00
4637;DHT22;2331;48.806;9.140;2023-07-20T09:40:15;24.00;1.00
4637;DHT22;2331;48.806;9.140;2023-07-20T09:42:42;23.90;1.00
4637;DHT22;2331;48.806;9.140;2023-07-20T09:45:09;23.80;1.00
4637;DHT22;2331;48.806;9.140;2023-07-20T09:47:37;23.80;1.00
4637;DHT22;2331;48.806;9.140;2023-07-20T09:50:06;24.00;1.00
4637;DHT22;2331;48.806;9.140;2023-07-20T09:52:39;23.90;1.00
4637;DHT22;2331;48.806;9.140;2023-07-20T09:55:07;24.00;1.00
4637;DHT22;2331;48.806;9.140;2023-07-20T09:57:35;24.10;1.00
4637;DHT22;2331;48.806;9.140;2023-07-20T10:00:04;24.10;1.00
4637;DHT22;2331;48.806;9.140;2023-07-20T10:02:37;24.20;1.00
4637;DHT22;2331;48.806;9.140;2023-07-20T10:05:11;24.30;1.00
4637;DHT22;2331;48.806;9.140;2023-07-20T10:07:44;24.20;1.00
4637;DHT22;2331;48.806;9.140;2023-07-20T10:10:14;24.40;1.00
4637;DHT22;2331;48.806;9.140;2023-07-20T10:12:41;24.40;1.00
4637;DHT22;2331;48.806;9.140;2023-07-20T10:15:12;24.50;1.00
4637;DHT22;2331;48.806;9.140;2023-07-20T10:17:47;24.50;1.00
4637;DHT22;2331;48.806;9.140;2023-07-20T10:20:17;24.50;1.00
4637;DHT22;2331;48.806;9.140;2023-07-20T10:22:47;24.50;1.00
4637;DHT22;2331;48.806;9.140;2023-07-20T10:25:16;24.50;1.00
4637;DHT22;2331;48.806;9.140;2023-07-20T10:27:44;24.50;1.00
4637;DHT22;2331;48.806;9.140;2023-07-20T10:30:11;24.60;1.00
4637;DHT22;2331;48.806;9.140;2023-07-20T10:32:40;24.70;1.00
4637;DHT22;2331;48.806;9.140;2023-07-20T10:35:13;24.80;1.00
4637;DHT22;2331;48.806;9.140;2023-07-20T10:37:49;24.90;1.00
4637;DHT22;2331;48.806;9.140;2023-07-20T10:40:32;24.90;1.00
4637;DHT22;2331;48.806;9.140;2023-07-20T10:43:01;25.00;1.00
4637;DHT22;2331;48.806;9.140;2023-07-20T10:45:42;25.10;1.00
4637;DHT22;2331;48.806;9.140;2023-07-20T10:48:16;25.00;1.00
4637;DHT22;2331;48.806;9.140;2023-07-20T10:50:45;25.00;1.00
4637;DHT22;2331;48.806;9.140;2023-07-20T10:53:15;25.00;1.00
4637;DHT22;2331;48.806;9.140;2023-07-20T10:55:42;25.10;1.00
4637;DHT22;2331;48.806;9.140;2023-07-20T10:58:11;25.10;1.00
4637;DHT22;2331;48.806;9.140;2023-07-20T11:00:57;25.20;1.00
4637;DHT22;2331;48.806;9.140;2023-07-20T11:03:30;25.20;1.00
4637;DHT22;2331;48.806;9.140;2023-07-20T11:05:57;25.20;1.00
4637;DHT22;2331;48.806;9.140;2023-07-20T11:08:42;25.10;1.00
4637;DHT22;2331;48.806;9.140;2023-07-20T11:11:21;25.20;1.00
4637;DHT22;2331;48.806;9.140;2023-07-20T11:13:56;25.20;1.00
4637;DHT22;2331;48.806;9.140;2023-07-20T11:16:37;25.30;1.00
4637;DHT22;2331;48.806;9.140;2023-07-20T11:19:06;25.50;1.00
4637;DHT22;2331;48.806;9.140;2023-07-20T11:21:37;25.60;1.00
4637;DHT22;2331;48.806;9.140;2023-07-20T11:24:06;25.50;1.00
4637;DHT22;2331;48.806;9.140;2023-07-20T11:26:44;25.70;1.00
4637;DHT22;2331;48.806;9.140;2023-07-20T11:29:12;25.80;1.00
4637;DHT22;2331;48.806;9.140;2023-07-20T11:31:40;25.70;1.00
4637;DHT22;2331;48.806;9.140;2023-07-20T11:34:09;25.70;1.00
4637;DHT22;2331;48.806;9.140;2023-07-20T11:36:36;25.80;1.00
4637;DHT22;2331;48.806;9.140;2023-07-20T11:39:04;25.80;1.00
4637;DHT22;2331;48.806;9.140;2023-07-20T11:41:34;25.90;1.00
4637;DHT22;2331;48.806;9.140;2023-07-20T11:44:02;25.80;1.00
4637;DHT22;2331;48.806;9.140;2023-07-20T11:46:29;25.90;1.00
4637;DHT22;2331;48.806;9.140;2023-07-20T11:48:57;25.70;1.00
4637;DHT22;2331;48.806;9.140;2023-07-20T11:51:25;25.80;1.00
4637;DHT22;2331;48.806;9.140;2023-07-20T11:53:53;25.90;1.00
4637;DHT22;2331;48.806;9.140;2023-07-20T11:56:19;26.00;1.00
4637;DHT22;2331;48.806;9.140;2023-07-20T11:58:47;26.00;1.00
4637;DHT22;2331;48.806;9.140;2023-07-20T12:01:15;26.00;1.00
4637;DHT22;2331;48.806;9.140;2023-07-20T12:03:42;26.00;1.00
4637;DHT22;2331;48.806;9.140;2023-07-20T12:06:10;26.00;1.00
4637;DHT22;2331;48.806;9.140;2023-07-20T12:08:41;26.00;1.00
4637;DHT22;2331;48.806;9.140;2023-07-20T12:11:08;25.90;1.00
4637;DHT22;2331;48.806;9.140;2023-07-20T12:13:36;26.00;1.00
4637;DHT22;2331;48.806;9.140;2023-07-20T12:16:09;26.10;1.00
4637;DHT22;2331;48.806;9.140;2023-07-20T12:18:37;26.10;1.00
4637;DHT22;2331;48.806;9.140;2023-07-20T12:21:06;26.20;1.00
4637;DHT22;2331;48.806;9.140;2023-07-20T12:23:37;26.30;1.00
4637;DHT22;2331;48.806;9.140;2023-07-20T12:26:06;26.30;1.00
4637;DHT22;2331;48.806;9.140;2023-07-20T12:28:38;26.20;1.00
4637;DHT22;2331;48.806;9.140;2023-07-20T12:31:05;26.20;1.00
4637;DHT22;2331;48.806;9.140;2023-07-20T12:33:33;26.40;1.00
4637;DHT22;2331;48.806;9.140;2023-07-20T12:36:00;26.40;1.00
4637;DHT22;2331;48.806;9.140;2023-07-20T12:38:27;26.50;1.00
4637;DHT22;2331;48.806;9.140;2023-07-20T12:40:54;26.50;1.00
4637;DHT22;2331;48.806;9.140;2023-07-20T12:43:21;26.50;1.00
4637;DHT22;2331;48.806;9.140;2023-07-20T12:45:48;26.50;1.00
4637;DHT22;2331;48.806;9.140;2023-07-20T12:48:15;26.60;1.00
4637;DHT22;2331;48.806;9.140;2023-07-20T12:50:43;26.70;1.00
4637;DHT22;2331;48.806;9.140;2023-07-20T12:53:10;26.60;1.00
4637;DHT22;2331;48.806;9.140;2023-07-20T12:55:38;26.80;1.00
4637;DHT22;2331;48.806;9.140;2023-07-20T12:58:06;26.70;1.00
4637;DHT22;2331;48.806;9.140;2023-07-20T13:00:33;26.70;1.00
4637;DHT22;2331;48.806;9.140;2023-07-20T13:02:59;26.70;1.00
4637;DHT22;2331;48.806;9.140;2023-07-20T13:05:30;26.80;1.00
4637;DHT22;2331;48.806;9.140;2023-07-20T13:07:59;26.80;1.00
4637;DHT22;2331;48.806;9.140;2023-07-20T13:10:26;26.80;1.00
4637;DHT22;2331;48.806;9.140;2023-07-20T13:12:53;26.80;1.00
4637;DHT22;2331;48.806;9.140;2023-07-20T13:15:20;26.80;1.00
4637;DHT22;2331;48.806;9.140;2023-07-20T13:17:46;26.90;1.00
4637;DHT22;2331;48.806;9.140;2023-07-20T13:20:13;27.10;1.00
4637;DHT22;2331;48.806;9.140;2023-07-20T13:22:40;27.10;1.00
4637;DHT22;2331;48.806;9.140;2023-07-20T13:25:09;27.20;1.00
4637;DHT22;2331;48.806;9.140;2023-07-20T13:27:36;27.10;1.00
4637;DHT22;2331;48.806;9.140;2023-07-20T13:30:04;27.00;1.00
4637;DHT22;2331;48.806;9.140;2023-07-20T13:32:32;27.00;1.00
4637;DHT22;2331;48.806;9.140;2023-07-20T13:34:59;27.10;1.00
4637;DHT22;2331;48.806;9.140;2023-07-20T13:37:26;27.10;1.00
4637;DHT22;2331;48.806;9.140;2023-07-20T13:39:53;27.30;1.00
4637;DHT22;2331;48.806;9.140;2023-07-20T13:42:21;27.30;1.00
4637;DHT22;2331;48.806;9.140;2023-07-20T13:44:48;27.00;1.00
4637;DHT22;2331;48.806;9.140;2023-07-20T13:47:15;27.20;1.00
4637;DHT22;2331;48.806;9.140;2023-07-20T13:49:43;27.50;1.00
4637;DHT22;2331;48.806;9.140;2023-07-20T13:52:10;27.50;1.00
4637;DHT22;2331;48.806;9.140;2023-07-20T13:54:37;27.50;1.00
4637;DHT22;2331;48.806;9.140;2023-07-20T13:57:04;27.50;1.00
4637;DHT22;2331;48.806;9.140;2023-07-20T13:59:32;27.60;1.00
4637;DHT22;2331;48.806;9.140;2023-07-20T14:01:59;27.60;1.00
4637;DHT22;2331;48.806;9.140;2023-07-20T14:04:26;27.70;1.00
4637;DHT22;2331;48.806;9.140;2023-07-20T14:06:54;27.70;1.00
4637;DHT22;2331;48.806;9.140;2023-07-20T14:09:23;27.70;1.00
4637;DHT22;2331;48.806;9.140;2023-07-20T14:11:50;27.70;1.00
4637;DHT22;2331;48.806;9.140;2023-07-20T14:14:16;27.60;1.00
4637;DHT22;2331;48.806;9.140;2023-07-20T14:16:45;27.80;1.00
4637;DHT22;2331;48.806;9.140;2023-07-20T14:19:11;27.80;1.00
4637;DHT22;2331;48.806;9.140;2023-07-20T14:21:38;27.90;1.00
4637;DHT22;2331;48.806;9.140;2023-07-20T14:24:05;27.90;1.00
4637;DHT22;2331;48.806;9.140;2023-07-20T14:26:32;27.80;1.00
4637;DHT22;2331;48.806;9.140;2023-07-20T14:29:00;28.00;1.00
4637;DHT22;2331;48.806;9.140;2023-07-20T14:31:27;28.10;1.00
4637;DHT22;2331;48.806;9.140;2023-07-20T14:33:55;28.30;1.00
4637;DHT22;2331;48.806;9.140;2023-07-20T14:36:22;28.20;1.00
4637;DHT22;2331;48.806;9.140;2023-07-20T14:38:49;28.20;1.00
4637;DHT22;2331;48.806;9.140;2023-07-20T14:41:16;28.00;1.00
4637;DHT22;2331;48.806;9.140;2023-07-20T14:43:42;28.00;1.00
4637;DHT22;2331;48.806;9.140;2023-07-20T14:46:09;28.30;1.00
4637;DHT22;2331;48.806;9.140;2023-07-20T14:48:36;28.40;1.00
4637;DHT22;2331;48.806;9.140;2023-07-20T14:51:04;28.50;1.00
4637;DHT22;2331;48.806;9.140;2023-07-20T14:53:31;28.40;1.00
4637;DHT22;2331;48.806;9.140;2023-07-20T14:56:01;28.20;1.00
4637;DHT22;2331;48.806;9.140;2023-07-20T14:58:29;28.30;1.00
4637;DHT22;2331;48.806;9.140;2023-07-20T15:00:56;28.40;1.00
4637;DHT22;2331;48.806;9.140;2023-07-20T15:03:22;28.50;1.00
4637;DHT22;2331;48.806;9.140;2023-07-20T15:05:49;28.60;1.00
4637;DHT22;2331;48.806;9.140;2023-07-20T15:08:18;28.60;1.00
4637;DHT22;2331;48.806;9.140;2023-07-20T15:10:45;28.40;1.00
4637;DHT22;2331;48.806;9.140;2023-07-20T15:13:12;28.30;1.00
4637;DHT22;2331;48.806;9.140;2023-07-20T15:15:39;28.10;1.00
4637;DHT22;2331;48.806;9.140;2023-07-20T15:18:06;28.10;1.00
4637;DHT22;2331;48.806;9.140;2023-07-20T15:20:32;28.10;1.00
4637;DHT22;2331;48.806;9.140;2023-07-20T15:22:59;28.20;1.00
4637;DHT22;2331;48.806;9.140;2023-07-20T15:25:28;28.40;1.00
4637;DHT22;2331;48.806;9.140;2023-07-20T15:27:55;28.30;1.00
4637;DHT22;2331;48.806;9.140;2023-07-20T15:30:22;28.30;1.00
4637;DHT22;2331;48.806;9.140;2023-07-20T15:32:48;28.30;1.00
4637;DHT22;2331;48.806;9.140;2023-07-20T15:35:15;28.20;1.00
4637;DHT22;2331;48.806;9.140;2023-07-20T15:37:42;28.30;1.00
4637;DHT22;2331;48.806;9.140;2023-07-20T15:40:11;28.30;1.00
4637;DHT22;2331;48.806;9.140;2023-07-20T15:42:39;28.40;1.00
4637;DHT22;2331;48.806;9.140;2023-07-20T15:45:07;28.40;1.00
4637;DHT22;2331;48.806;9.140;2023-07-20T15:47:34;28.40;1.00
4637;DHT22;2331;48.806;9.140;2023-07-20T15:50:01;28.20;1.00
4637;DHT22;2331;48.806;9.140;2023-07-20T15:52:28;28.30;1.00
4637;DHT22;2331;48.806;9.140;2023-07-20T15:54:54;28.00;1.00
4637;DHT22;2331;48.806;9.140;2023-07-20T15:57:21;28.10;1.00
4637;DHT22;2331;48.806;9.140;2023-07-20T15:59:49;28.10;1.00
4637;DHT22;2331;48.806;9.140;2023-07-20T16:02:16;28.20;1.00
4637;DHT22;2331;48.806;9.140;2023-07-20T16:04:43;28.30;1.00
4637;DHT22;2331;48.806;9.140;2023-07-20T16:07:11;28.30;1.00
4637;DHT22;2331;48.806;9.140;2023-07-20T16:09:38;28.20;1.00
4637;DHT22;2331;48.806;9.140;2023-07-20T16:12:06;28.20;1.00
4637;DHT22;2331;48.806;9.140;2023-07-20T16:14:33;28.10;1.00
4637;DHT22;2331;48.806;9.140;2023-07-20T16:17:01;28.10;1.00
4637;DHT22;2331;48.806;9.140;2023-07-20T16:19:29;27.90;1.00
4637;DHT22;2331;48.806;9.140;2023-07-20T16:21:55;27.80;1.00
4637;DHT22;2331;48.806;9.140;2023-07-20T16:24:22;27.90;1.00
4637;DHT22;2331;48.806;9.140;2023-07-20T16:26:49;27.90;1.00